sensor_id;sensor_type;location;lat;lon;timestamp;P1;durP1;ratioP1;P2;durP2;ratioP2
22963;SDS011;11648;49.306;6.934;2023-04-01T00:01:24;6.73;;;0.90;;
22963;SDS011;11648;49.306;6.934;2023-04-01T00:03:51;6.07;;;0.87;;
22963;SDS011;11648;49.306;6.934;2023-04-01T00:06:18;5.77;;;1.07;;
22963;SDS011;11648;49.306;6.934;2023-04-01T00:08:45;7.53;;;0.90;;
22963;SDS011;11648;49.306;6.934;2023-04-01T00:11:13;5.23;;;0.80;;
22963;SDS011;11648;49.306;6.934;2023-04-01T00:13:40;3.30;;;0.80;;
22963;SDS011;11648;49.306;6.934;2023-04-01T00:16:07;5.37;;;0.93;;
22963;SDS011;11648;49.306;6.934;2023-04-01T00:18:46;7.17;;;0.90;;
22963;SDS011;11648;49.306;6.934;2023-04-01T00:21:14;6.20;;;0.80;;
22963;SDS011;11648;49.306;6.934;2023-04-01T00:23:41;5.53;;;1.23;;
22963;SDS011;11648;49.306;6.934;2023-04-01T00:26:08;8.60;;;1.30;;
22963;SDS011;11648;49.306;6.934;2023-04-01T00:28:37;4.80;;;0.90;;
22963;SDS011;11648;49.306;6.934;2023-04-01T00:31:04;7.00;;;0.90;;
22963;SDS011;11648;49.306;6.934;2023-04-01T00:33:32;5.17;;;0.83;;
22963;SDS011;11648;49.306;6.934;2023-04-01T00:36:09;4.10;;;0.77;;
22963;SDS011;11648;49.306;6.934;2023-04-01T00:38:38;6.37;;;1.30;;
22963;SDS011;11648;49.306;6.934;2023-04-01T00:41:05;14.47;;;3.50;;
22963;SDS011;11648;49.306;6.934;2023-04-01T00:43:32;7.03;;;0.90;;
22963;SDS011;11648;49.306;6.934;2023-04-01T00:45:59;7.20;;;1.47;;
22963;SDS011;11648;49.306;6.934;2023-04-01T00:48:31;6.90;;;0.93;;
22963;SDS011;11648;49.306;6.934;2023-04-01T00:51:05;6.90;;;1.10;;
22963;SDS011;11648;49.306;6.934;2023-04-01T00:53:39;9.47;;;1.10;;
22963;SDS011;11648;49.306;6.934;2023-04-01T00:56:10;7.33;;;1.57;;
22963;SDS011;11648;49.306;6.934;2023-04-01T00:58:43;5.83;;;1.00;;
22963;SDS011;11648;49.306;6.934;2023-04-01T01:01:12;6.90;;;1.13;;
22963;SDS011;11648;49.306;6.934;2023-04-01T01:03:39;5.43;;;1.07;;
22963;SDS011;11648;49.306;6.934;2023-04-01T01:11:58;5.57;;;0.93;;
22963;SDS011;11648;49.306;6.934;2023-04-01T01:14:46;4.67;;;0.80;;
22963;SDS011;11648;49.306;6.934;2023-04-01T01:31:24;7.93;;;1.00;;
22963;SDS011;11648;49.306;6.934;2023-04-01T01:36:51;6.80;;;1.23;;
22963;SDS011;11648;49.306;6.934;2023-04-01T01:39:24;8.83;;;1.10;;
22963;SDS011;11648;49.306;6.934;2023-04-01T01:41:56;7.20;;;1.10;;
22963;SDS011;11648;49.306;6.934;2023-04-01T01:44:27;8.50;;;1.10;;
22963;SDS011;11648;49.306;6.934;2023-04-01T01:46:57;9.50;;;1.43;;
22963;SDS011;11648;49.306;6.934;2023-04-01T01:49:24;6.27;;;1.00;;
22963;SDS011;11648;49.306;6.934;2023-04-01T01:51:55;6.37;;;1.00;;
22963;SDS011;11648;49.306;6.934;2023-04-01T01:54:22;8.23;;;1.00;;
22963;SDS011;11648;49.306;6.934;2023-04-01T01:56:51;6.70;;;1.20;;
22963;SDS011;11648;49.306;6.934;2023-04-01T01:59:23;9.90;;;1.00;;
22963;SDS011;11648;49.306;6.934;2023-04-01T02:01:55;5.57;;;0.87;;
22963;SDS011;11648;49.306;6.934;2023-04-01T02:04:23;8.27;;;1.20;;
22963;SDS011;11648;49.306;6.934;2023-04-01T02:06:59;11.60;;;1.37;;
22963;SDS011;11648;49.306;6.934;2023-04-01T02:09:29;8.03;;;1.03;;
22963;SDS011;11648;49.306;6.934;2023-04-01T02:11:57;8.80;;;1.07;;
22963;SDS011;11648;49.306;6.934;2023-04-01T02:14:41;5.77;;;1.20;;
22963;SDS011;11648;49.306;6.934;2023-04-01T02:17:14;8.07;;;1.37;;
22963;SDS011;11648;49.306;6.934;2023-04-01T02:19:52;8.47;;;1.30;;
22963;SDS011;11648;49.306;6.934;2023-04-01T02:22:25;9.47;;;1.20;;
22963;SDS011;11648;49.306;6.934;2023-04-01T02:24:54;7.27;;;1.00;;
22963;SDS011;11648;49.306;6.934;2023-04-01T02:27:25;6.03;;;0.90;;
22963;SDS011;11648;49.306;6.934;2023-04-01T02:29:55;5.53;;;0.80;;
22963;SDS011;11648;49.306;6.934;2023-04-01T02:32:21;6.53;;;1.10;;
22963;SDS011;11648;49.306;6.934;2023-04-01T02:34:48;7.37;;;1.00;;
22963;SDS011;11648;49.306;6.934;2023-04-01T02:37:16;8.63;;;1.47;;
22963;SDS011;11648;49.306;6.934;2023-04-01T02:39:43;8.23;;;1.50;;
22963;SDS011;11648;49.306;6.934;2023-04-01T02:42:10;6.60;;;1.20;;
22963;SDS011;11648;49.306;6.934;2023-04-01T02:44:37;10.33;;;1.60;;
22963;SDS011;11648;49.306;6.934;2023-04-01T02:47:03;7.37;;;1.10;;
22963;SDS011;11648;49.306;6.934;2023-04-01T02:49:30;6.67;;;1.13;;
22963;SDS011;11648;49.306;6.934;2023-04-01T02:51:57;8.27;;;0.97;;
22963;SDS011;11648;49.306;6.934;2023-04-01T02:54:23;6.90;;;1.50;;
22963;SDS011;11648;49.306;6.934;2023-04-01T02:56:50;6.47;;;0.90;;
22963;SDS011;11648;49.306;6.934;2023-04-01T02:59:17;7.17;;;0.90;;
22963;SDS011;11648;49.306;6.934;2023-04-01T03:01:44;6.23;;;1.30;;
22963;SDS011;11648;49.306;6.934;2023-04-01T03:04:10;6.10;;;0.90;;
22963;SDS011;11648;49.306;6.934;2023-04-01T03:06:37;5.07;;;0.90;;
22963;SDS011;11648;49.306;6.934;2023-04-01T03:09:04;6.70;;;1.33;;
22963;SDS011;11648;49.306;6.934;2023-04-01T03:11:30;4.17;;;0.80;;
22963;SDS011;11648;49.306;6.934;2023-04-01T03:13:57;8.43;;;1.30;;
22963;SDS011;11648;49.306;6.934;2023-04-01T03:16:24;7.00;;;1.03;;
22963;SDS011;11648;49.306;6.934;2023-04-01T03:18:51;5.33;;;0.90;;
22963;SDS011;11648;49.306;6.934;2023-04-01T03:21:22;6.47;;;0.77;;
22963;SDS011;11648;49.306;6.934;2023-04-01T03:23:50;8.67;;;1.00;;
22963;SDS011;11648;49.306;6.934;2023-04-01T03:26:17;5.60;;;1.10;;
22963;SDS011;11648;49.306;6.934;2023-04-01T03:28:44;6.17;;;1.00;;
22963;SDS011;11648;49.306;6.934;2023-04-01T03:31:11;5.20;;;1.00;;
22963;SDS011;11648;49.306;6.934;2023-04-01T03:33:45;6.07;;;0.90;;
22963;SDS011;11648;49.306;6.934;2023-04-01T03:36:12;5.93;;;0.83;;
22963;SDS011;11648;49.306;6.934;2023-04-01T03:38:39;6.00;;;0.90;;
22963;SDS011;11648;49.306;6.934;2023-04-01T03:41:07;7.27;;;0.90;;
22963;SDS011;11648;49.306;6.934;2023-04-01T03:43:34;4.60;;;0.90;;
22963;SDS011;11648;49.306;6.934;2023-04-01T03:46:01;6.13;;;0.90;;
22963;SDS011;11648;49.306;6.934;2023-04-01T03:48:28;6.43;;;1.00;;
22963;SDS011;11648;49.306;6.934;2023-04-01T03:50:55;7.13;;;1.00;;
22963;SDS011;11648;49.306;6.934;2023-04-01T03:53:22;6.03;;;1.13;;
22963;SDS011;11648;49.306;6.934;2023-04-01T03:55:49;4.80;;;0.90;;
22963;SDS011;11648;49.306;6.934;2023-04-01T03:58:17;6.83;;;0.80;;
22963;SDS011;11648;49.306;6.934;2023-04-01T04:00:44;4.83;;;0.70;;
22963;SDS011;11648;49.306;6.934;2023-04-01T04:03:11;6.33;;;0.70;;
22963;SDS011;11648;49.306;6.934;2023-04-01T04:05:47;6.27;;;0.77;;
22963;SDS011;11648;49.306;6.934;2023-04-01T04:08:17;4.87;;;1.10;;
22963;SDS011;11648;49.306;6.934;2023-04-01T04:10:44;4.13;;;0.70;;
22963;SDS011;11648;49.306;6.934;2023-04-01T04:13:11;5.03;;;1.00;;
22963;SDS011;11648;49.306;6.934;2023-04-01T04:15:44;5.40;;;1.10;;
22963;SDS011;11648;49.306;6.934;2023-04-01T04:18:10;5.10;;;1.07;;
22963;SDS011;11648;49.306;6.934;2023-04-01T04:20:42;5.57;;;0.70;;
22963;SDS011;11648;49.306;6.934;2023-04-01T04:23:11;7.83;;;0.90;;
22963;SDS011;11648;49.306;6.934;2023-04-01T04:25:39;6.77;;;1.17;;
22963;SDS011;11648;49.306;6.934;2023-04-01T04:28:06;4.80;;;0.70;;
22963;SDS011;11648;49.306;6.934;2023-04-01T04:30:34;7.73;;;0.80;;
22963;SDS011;11648;49.306;6.934;2023-04-01T04:33:00;4.90;;;0.63;;
22963;SDS011;11648;49.306;6.934;2023-04-01T04:35:28;5.27;;;0.60;;
22963;SDS011;11648;49.306;6.934;2023-04-01T04:37:54;4.77;;;0.53;;
22963;SDS011;11648;49.306;6.934;2023-04-01T04:40:21;5.67;;;0.90;;
22963;SDS011;11648;49.306;6.934;2023-04-01T04:42:48;7.17;;;0.73;;
22963;SDS011;11648;49.306;6.934;2023-04-01T04:45:15;5.43;;;0.90;;
22963;SDS011;11648;49.306;6.934;2023-04-01T04:47:51;3.77;;;0.70;;
22963;SDS011;11648;49.306;6.934;2023-04-01T04:50:17;5.37;;;0.80;;
22963;SDS011;11648;49.306;6.934;2023-04-01T04:52:44;6.27;;;0.73;;
22963;SDS011;11648;49.306;6.934;2023-04-01T04:55:11;6.53;;;1.07;;
22963;SDS011;11648;49.306;6.934;2023-04-01T04:57:40;4.97;;;0.80;;
22963;SDS011;11648;49.306;6.934;2023-04-01T05:00:08;5.37;;;0.80;;
22963;SDS011;11648;49.306;6.934;2023-04-01T05:02:51;4.47;;;0.90;;
22963;SDS011;11648;49.306;6.934;2023-04-01T05:05:18;4.10;;;0.93;;
22963;SDS011;11648;49.306;6.934;2023-04-01T05:07:45;4.70;;;0.90;;
22963;SDS011;11648;49.306;6.934;2023-04-01T05:10:12;3.63;;;0.70;;
22963;SDS011;11648;49.306;6.934;2023-04-01T05:12:38;5.67;;;0.70;;
22963;SDS011;11648;49.306;6.934;2023-04-01T05:15:08;3.63;;;0.60;;
22963;SDS011;11648;49.306;6.934;2023-04-01T05:17:35;2.20;;;0.67;;
22963;SDS011;11648;49.306;6.934;2023-04-01T05:20:03;3.37;;;0.70;;
22963;SDS011;11648;49.306;6.934;2023-04-01T05:22:30;6.40;;;0.90;;
22963;SDS011;11648;49.306;6.934;2023-04-01T05:24:57;4.57;;;0.80;;
22963;SDS011;11648;49.306;6.934;2023-04-01T05:27:24;4.33;;;0.57;;
22963;SDS011;11648;49.306;6.934;2023-04-01T05:29:51;4.90;;;0.70;;
22963;SDS011;11648;49.306;6.934;2023-04-01T05:32:44;2.83;;;0.80;;
22963;SDS011;11648;49.306;6.934;2023-04-01T05:35:11;5.57;;;0.50;;
22963;SDS011;11648;49.306;6.934;2023-04-01T05:37:38;2.73;;;0.50;;
22963;SDS011;11648;49.306;6.934;2023-04-01T05:40:05;4.03;;;0.63;;
22963;SDS011;11648;49.306;6.934;2023-04-01T05:42:33;3.97;;;0.53;;
22963;SDS011;11648;49.306;6.934;2023-04-01T05:45:03;5.83;;;0.80;;
22963;SDS011;11648;49.306;6.934;2023-04-01T05:48:08;3.60;;;0.60;;
22963;SDS011;11648;49.306;6.934;2023-04-01T05:50:39;3.63;;;0.60;;
22963;SDS011;11648;49.306;6.934;2023-04-01T05:53:08;4.27;;;0.60;;
22963;SDS011;11648;49.306;6.934;2023-04-01T05:55:36;3.17;;;0.50;;
22963;SDS011;11648;49.306;6.934;2023-04-01T05:58:03;4.00;;;0.60;;
22963;SDS011;11648;49.306;6.934;2023-04-01T06:00:30;2.23;;;0.57;;
22963;SDS011;11648;49.306;6.934;2023-04-01T06:02:59;3.83;;;0.60;;
22963;SDS011;11648;49.306;6.934;2023-04-01T06:05:30;4.60;;;0.60;;
22963;SDS011;11648;49.306;6.934;2023-04-01T06:08:15;1.70;;;0.40;;
22963;SDS011;11648;49.306;6.934;2023-04-01T06:16:09;1.83;;;0.70;;
22963;SDS011;11648;49.306;6.934;2023-04-01T06:21:37;2.10;;;0.40;;
22963;SDS011;11648;49.306;6.934;2023-04-01T06:29:58;2.27;;;0.50;;
22963;SDS011;11648;49.306;6.934;2023-04-01T06:56:32;1.80;;;0.33;;
22963;SDS011;11648;49.306;6.934;2023-04-01T07:01:59;2.13;;;0.30;;
22963;SDS011;11648;49.306;6.934;2023-04-01T07:04:33;1.20;;;0.30;;
22963;SDS011;11648;49.306;6.934;2023-04-01T07:07:08;4.07;;;0.50;;
22963;SDS011;11648;49.306;6.934;2023-04-01T07:10:02;1.53;;;0.37;;
22963;SDS011;11648;49.306;6.934;2023-04-01T07:12:56;3.13;;;0.60;;
22963;SDS011;11648;49.306;6.934;2023-04-01T07:15:55;1.70;;;0.43;;
22963;SDS011;11648;49.306;6.934;2023-04-01T07:18:38;1.37;;;0.40;;
22963;SDS011;11648;49.306;6.934;2023-04-01T07:21:30;1.87;;;0.30;;
22963;SDS011;11648;49.306;6.934;2023-04-01T07:24:35;2.47;;;0.47;;
22963;SDS011;11648;49.306;6.934;2023-04-01T07:27:11;1.30;;;0.40;;
22963;SDS011;11648;49.306;6.934;2023-04-01T07:29:40;2.80;;;0.57;;
22963;SDS011;11648;49.306;6.934;2023-04-01T07:32:31;1.83;;;0.33;;
22963;SDS011;11648;49.306;6.934;2023-04-01T07:35:04;1.93;;;0.30;;
22963;SDS011;11648;49.306;6.934;2023-04-01T07:46:07;0.93;;;0.30;;
22963;SDS011;11648;49.306;6.934;2023-04-01T07:48:39;0.97;;;0.20;;
22963;SDS011;11648;49.306;6.934;2023-04-01T07:51:13;1.73;;;0.30;;
22963;SDS011;11648;49.306;6.934;2023-04-01T07:56:45;0.93;;;0.23;;
22963;SDS011;11648;49.306;6.934;2023-04-01T08:17:45;2.33;;;0.30;;
22963;SDS011;11648;49.306;6.934;2023-04-01T08:20:32;2.43;;;0.37;;
22963;SDS011;11648;49.306;6.934;2023-04-01T08:23:07;4.13;;;0.50;;
22963;SDS011;11648;49.306;6.934;2023-04-01T08:26:27;2.27;;;0.30;;
22963;SDS011;11648;49.306;6.934;2023-04-01T08:28:43;0.50;;;0.30;;
22963;SDS011;11648;49.306;6.934;2023-04-01T08:33:53;0.43;;;0.20;;
22963;SDS011;11648;49.306;6.934;2023-04-01T08:36:25;1.03;;;0.30;;
22963;SDS011;11648;49.306;6.934;2023-04-01T08:39:18;1.87;;;0.37;;
22963;SDS011;11648;49.306;6.934;2023-04-01T08:45:15;1.40;;;0.20;;
22963;SDS011;11648;49.306;6.934;2023-04-01T08:48:08;0.90;;;0.20;;
22963;SDS011;11648;49.306;6.934;2023-04-01T08:56:50;0.40;;;0.30;;
22963;SDS011;11648;49.306;6.934;2023-04-01T09:00:22;1.33;;;0.30;;
22963;SDS011;11648;49.306;6.934;2023-04-01T09:05:44;1.10;;;0.40;;
22963;SDS011;11648;49.306;6.934;2023-04-01T09:08:43;0.70;;;0.20;;
22963;SDS011;11648;49.306;6.934;2023-04-01T09:14:42;0.90;;;0.30;;
22963;SDS011;11648;49.306;6.934;2023-04-01T09:17:23;1.27;;;0.40;;
22963;SDS011;11648;49.306;6.934;2023-04-01T09:29:32;0.90;;;0.30;;
22963;SDS011;11648;49.306;6.934;2023-04-01T09:40:31;1.10;;;0.40;;
22963;SDS011;11648;49.306;6.934;2023-04-01T10:03:18;1.37;;;0.43;;
22963;SDS011;11648;49.306;6.934;2023-04-01T10:15:10;0.80;;;0.30;;
22963;SDS011;11648;49.306;6.934;2023-04-01T10:23:36;1.80;;;0.40;;
22963;SDS011;11648;49.306;6.934;2023-04-01T10:26:55;0.83;;;0.30;;
22963;SDS011;11648;49.306;6.934;2023-04-01T10:50:04;0.57;;;0.27;;
22963;SDS011;11648;49.306;6.934;2023-04-01T10:52:41;1.13;;;0.40;;
22963;SDS011;11648;49.306;6.934;2023-04-01T10:59:06;2.20;;;0.60;;
22963;SDS011;11648;49.306;6.934;2023-04-01T11:22:10;1.10;;;0.43;;
22963;SDS011;11648;49.306;6.934;2023-04-01T11:28:30;0.73;;;0.30;;
22963;SDS011;11648;49.306;6.934;2023-04-01T11:42:53;1.47;;;0.40;;
22963;SDS011;11648;49.306;6.934;2023-04-01T11:49:00;1.50;;;0.50;;
22963;SDS011;11648;49.306;6.934;2023-04-01T12:16:07;2.10;;;0.60;;
22963;SDS011;11648;49.306;6.934;2023-04-01T12:21:58;1.60;;;0.50;;
22963;SDS011;11648;49.306;6.934;2023-04-01T12:24:33;1.83;;;0.50;;
22963;SDS011;11648;49.306;6.934;2023-04-01T12:30:06;3.43;;;0.60;;
22963;SDS011;11648;49.306;6.934;2023-04-01T12:33:01;1.20;;;0.40;;
22963;SDS011;11648;49.306;6.934;2023-04-01T12:36:13;1.57;;;0.50;;
22963;SDS011;11648;49.306;6.934;2023-04-01T12:41:29;1.60;;;0.30;;
22963;SDS011;11648;49.306;6.934;2023-04-01T12:44:13;2.23;;;0.60;;
22963;SDS011;11648;49.306;6.934;2023-04-01T12:52:25;1.73;;;0.40;;
22963;SDS011;11648;49.306;6.934;2023-04-01T12:55:15;2.47;;;0.53;;
22963;SDS011;11648;49.306;6.934;2023-04-01T12:58:03;2.37;;;0.80;;
22963;SDS011;11648;49.306;6.934;2023-04-01T13:08:55;1.70;;;0.40;;
22963;SDS011;11648;49.306;6.934;2023-04-01T13:11:57;2.80;;;0.60;;
22963;SDS011;11648;49.306;6.934;2023-04-01T13:17:35;1.23;;;0.40;;
22963;SDS011;11648;49.306;6.934;2023-04-01T13:20:16;1.20;;;0.50;;
22963;SDS011;11648;49.306;6.934;2023-04-01T13:26:28;2.00;;;0.40;;
22963;SDS011;11648;49.306;6.934;2023-04-01T13:35:23;1.30;;;0.30;;
22963;SDS011;11648;49.306;6.934;2023-04-01T13:43:58;1.47;;;0.50;;
22963;SDS011;11648;49.306;6.934;2023-04-01T13:51:50;2.17;;;0.60;;
22963;SDS011;11648;49.306;6.934;2023-04-01T13:54:47;3.10;;;0.60;;
22963;SDS011;11648;49.306;6.934;2023-04-01T14:06:06;2.13;;;0.60;;
22963;SDS011;11648;49.306;6.934;2023-04-01T14:28:02;2.00;;;0.60;;
22963;SDS011;11648;49.306;6.934;2023-04-01T14:30:40;1.97;;;0.50;;
22963;SDS011;11648;49.306;6.934;2023-04-01T14:33:25;1.20;;;0.50;;
22963;SDS011;11648;49.306;6.934;2023-04-01T14:41:46;1.57;;;0.57;;
22963;SDS011;11648;49.306;6.934;2023-04-01T14:44:23;1.37;;;0.40;;
22963;SDS011;11648;49.306;6.934;2023-04-01T14:47:13;2.20;;;0.60;;
22963;SDS011;11648;49.306;6.934;2023-04-01T14:50:14;3.60;;;0.60;;
22963;SDS011;11648;49.306;6.934;2023-04-01T14:55:46;1.10;;;0.40;;
22963;SDS011;11648;49.306;6.934;2023-04-01T14:58:15;1.23;;;0.40;;
22963;SDS011;11648;49.306;6.934;2023-04-01T15:03:34;1.53;;;0.50;;
22963;SDS011;11648;49.306;6.934;2023-04-01T15:31:16;2.80;;;0.80;;
22963;SDS011;11648;49.306;6.934;2023-04-01T15:39:20;1.70;;;0.70;;
22963;SDS011;11648;49.306;6.934;2023-04-01T15:44:45;2.50;;;0.60;;
22963;SDS011;11648;49.306;6.934;2023-04-01T15:50:06;2.30;;;0.70;;
22963;SDS011;11648;49.306;6.934;2023-04-01T15:55:59;1.17;;;0.40;;
22963;SDS011;11648;49.306;6.934;2023-04-01T16:04:32;2.43;;;0.60;;
22963;SDS011;11648;49.306;6.934;2023-04-01T16:10:09;1.40;;;0.50;;
22963;SDS011;11648;49.306;6.934;2023-04-01T16:12:56;1.90;;;0.50;;
22963;SDS011;11648;49.306;6.934;2023-04-01T16:15:49;0.93;;;0.40;;
22963;SDS011;11648;49.306;6.934;2023-04-01T16:23:40;2.77;;;0.67;;
22963;SDS011;11648;49.306;6.934;2023-04-01T16:26:23;1.37;;;0.47;;
22963;SDS011;11648;49.306;6.934;2023-04-01T16:28:57;1.63;;;0.50;;
22963;SDS011;11648;49.306;6.934;2023-04-01T16:34:13;2.73;;;1.23;;
22963;SDS011;11648;49.306;6.934;2023-04-01T16:36:58;5.23;;;0.80;;
22963;SDS011;11648;49.306;6.934;2023-04-01T16:39:45;3.43;;;1.30;;
22963;SDS011;11648;49.306;6.934;2023-04-01T16:42:43;2.03;;;0.70;;
22963;SDS011;11648;49.306;6.934;2023-04-01T16:47:53;3.03;;;1.67;;
22963;SDS011;11648;49.306;6.934;2023-04-01T16:50:23;2.17;;;1.00;;
22963;SDS011;11648;49.306;6.934;2023-04-01T16:58:14;3.43;;;1.33;;
22963;SDS011;11648;49.306;6.934;2023-04-01T17:00:48;1.53;;;0.80;;
22963;SDS011;11648;49.306;6.934;2023-04-01T17:03:27;2.13;;;0.57;;
22963;SDS011;11648;49.306;6.934;2023-04-01T17:11:18;2.40;;;0.70;;
22963;SDS011;11648;49.306;6.934;2023-04-01T17:19:11;2.33;;;0.70;;
22963;SDS011;11648;49.306;6.934;2023-04-01T17:21:53;2.40;;;0.70;;
22963;SDS011;11648;49.306;6.934;2023-04-01T17:27:15;3.53;;;0.80;;
22963;SDS011;11648;49.306;6.934;2023-04-01T17:41:31;4.20;;;1.50;;
22963;SDS011;11648;49.306;6.934;2023-04-01T17:58:00;3.10;;;1.37;;
22963;SDS011;11648;49.306;6.934;2023-04-01T18:25:46;3.27;;;0.73;;
22963;SDS011;11648;49.306;6.934;2023-04-01T18:28:17;1.80;;;0.80;;
22963;SDS011;11648;49.306;6.934;2023-04-01T18:30:53;3.37;;;0.93;;
22963;SDS011;11648;49.306;6.934;2023-04-01T18:39:01;1.60;;;0.60;;
22963;SDS011;11648;49.306;6.934;2023-04-01T18:57:50;3.30;;;1.10;;
22963;SDS011;11648;49.306;6.934;2023-04-01T19:00:21;2.87;;;0.90;;
22963;SDS011;11648;49.306;6.934;2023-04-01T19:05:34;1.73;;;0.77;;
22963;SDS011;11648;49.306;6.934;2023-04-01T19:08:18;2.77;;;0.83;;
22963;SDS011;11648;49.306;6.934;2023-04-01T19:22:20;2.97;;;1.50;;
22963;SDS011;11648;49.306;6.934;2023-04-01T19:27:50;3.43;;;2.13;;
22963;SDS011;11648;49.306;6.934;2023-04-01T19:32:58;2.30;;;1.27;;
22963;SDS011;11648;49.306;6.934;2023-04-01T19:38:56;4.03;;;1.20;;
22963;SDS011;11648;49.306;6.934;2023-04-01T19:46:33;1.63;;;0.70;;
22963;SDS011;11648;49.306;6.934;2023-04-01T20:02:38;3.10;;;0.80;;
22963;SDS011;11648;49.306;6.934;2023-04-01T20:07:52;2.13;;;0.97;;
22963;SDS011;11648;49.306;6.934;2023-04-01T20:10:34;2.40;;;0.70;;
22963;SDS011;11648;49.306;6.934;2023-04-01T20:13:13;1.83;;;1.00;;
22963;SDS011;11648;49.306;6.934;2023-04-01T20:16:03;3.83;;;1.00;;
22963;SDS011;11648;49.306;6.934;2023-04-01T20:18:45;2.23;;;0.87;;
22963;SDS011;11648;49.306;6.934;2023-04-01T20:26:34;2.07;;;0.90;;
22963;SDS011;11648;49.306;6.934;2023-04-01T20:29:18;2.50;;;0.93;;
22963;SDS011;11648;49.306;6.934;2023-04-01T20:35:13;2.67;;;0.97;;
22963;SDS011;11648;49.306;6.934;2023-04-01T20:37:57;4.00;;;1.00;;
22963;SDS011;11648;49.306;6.934;2023-04-01T20:40:38;2.07;;;1.00;;
22963;SDS011;11648;49.306;6.934;2023-04-01T20:43:14;1.50;;;0.90;;
22963;SDS011;11648;49.306;6.934;2023-04-01T20:46:01;2.77;;;1.10;;
22963;SDS011;11648;49.306;6.934;2023-04-01T20:51:28;2.67;;;0.90;;
22963;SDS011;11648;49.306;6.934;2023-04-01T21:09:26;1.60;;;0.90;;
22963;SDS011;11648;49.306;6.934;2023-04-01T21:11:51;3.60;;;1.10;;
22963;SDS011;11648;49.306;6.934;2023-04-01T21:14:28;2.63;;;1.07;;
22963;SDS011;11648;49.306;6.934;2023-04-01T22:04:15;4.03;;;1.90;;
22963;SDS011;11648;49.306;6.934;2023-04-01T22:07:13;4.47;;;1.50;;
22963;SDS011;11648;49.306;6.934;2023-04-01T22:12:35;5.03;;;1.67;;
22963;SDS011;11648;49.306;6.934;2023-04-01T22:18:25;3.97;;;1.90;;
22963;SDS011;11648;49.306;6.934;2023-04-01T22:23:43;3.53;;;1.80;;
22963;SDS011;11648;49.306;6.934;2023-04-01T22:31:59;4.03;;;1.87;;
22963;SDS011;11648;49.306;6.934;2023-04-01T22:34:40;4.67;;;1.53;;
22963;SDS011;11648;49.306;6.934;2023-04-01T22:37:34;5.17;;;1.90;;
22963;SDS011;11648;49.306;6.934;2023-04-01T22:40:16;4.03;;;1.80;;
22963;SDS011;11648;49.306;6.934;2023-04-01T22:43:11;4.43;;;1.87;;
22963;SDS011;11648;49.306;6.934;2023-04-01T22:45:48;3.40;;;1.63;;
22963;SDS011;11648;49.306;6.934;2023-04-01T22:51:22;3.27;;;1.60;;
22963;SDS011;11648;49.306;6.934;2023-04-01T22:54:58;2.87;;;1.30;;
22963;SDS011;11648;49.306;6.934;2023-04-01T22:57:04;2.23;;;1.50;;
22963;SDS011;11648;49.306;6.934;2023-04-01T23:04:54;2.67;;;1.83;;
22963;SDS011;11648;49.306;6.934;2023-04-01T23:07:29;3.70;;;2.00;;
22963;SDS011;11648;49.306;6.934;2023-04-01T23:13:16;3.40;;;1.60;;
22963;SDS011;11648;49.306;6.934;2023-04-01T23:15:48;3.43;;;1.80;;
22963;SDS011;11648;49.306;6.934;2023-04-01T23:18:25;4.67;;;1.67;;
22963;SDS011;11648;49.306;6.934;2023-04-01T23:26:50;2.37;;;1.40;;
22963;SDS011;11648;49.306;6.934;2023-04-01T23:29:21;2.10;;;1.30;;
22963;SDS011;11648;49.306;6.934;2023-04-01T23:31:58;3.37;;;1.83;;
22963;SDS011;11648;49.306;6.934;2023-04-01T23:37:02;3.20;;;1.80;;
22963;SDS011;11648;49.306;6.934;2023-04-01T23:39:38;3.77;;;1.80;;
22963;SDS011;11648;49.306;6.934;2023-04-01T23:42:11;3.10;;;1.90;;
22963;SDS011;11648;49.306;6.934;2023-04-01T23:44:41;3.00;;;1.70;;
22963;SDS011;11648;49.306;6.934;2023-04-01T23:47:12;2.97;;;1.80;;
22963;SDS011;11648;49.306;6.934;2023-04-01T23:49:47;2.50;;;1.60;;
22963;SDS011;11648;49.306;6.934;2023-04-01T23:54:57;3.10;;;2.00;;
22963;SDS011;11648;49.306;6.934;2023-04-01T23:57:33;3.57;;;1.93;;
